ASA62 PAJN-PASI
Flight info
| Callsign | ASA62 |
|---|---|
| Flight time | N/A |
| Altitude | 13000 |
| Route | RODMN1 RODMN |
| Aircraft | B738/M-SDE2E3FGHIRWXY/LB1 |
Departure
| Time | 2026-05-08 01:23 |
|---|---|
| Airport | Juneau International Airport (PAJN) |
Arrival
| Time | N/A |
|---|---|
| Airport | Sitka Rocky Gutierrez Airport (PASI) |
| Time | Latitude | Longitude | Altitude | Speed | Heading |
|---|---|---|---|---|---|
| 2026-05-08 01:16 | 58.35873 | -134.58471 | 33 ft | 0 kts | 103° |
| 2026-05-08 01:16 | 58.35876 | -134.58491 | 33 ft | 4 kts | 101° |
| 2026-05-08 01:16 | 58.35881 | -134.58540 | 32 ft | 4 kts | 117° |
| 2026-05-08 01:16 | 58.35885 | -134.58558 | 31 ft | 2 kts | 203° |
| 2026-05-08 01:17 | 58.35866 | -134.58567 | 33 ft | 4 kts | 183° |
| 2026-05-08 01:17 | 58.35859 | -134.58566 | 33 ft | 0 kts | 180° |
| 2026-05-08 01:18 | 58.35856 | -134.58566 | 33 ft | 2 kts | 180° |
| 2026-05-08 01:18 | 58.35823 | -134.58567 | 33 ft | 9 kts | 182° |
| 2026-05-08 01:19 | 58.35794 | -134.58606 | 32 ft | 0 kts | 224° |
| 2026-05-08 01:19 | 58.35793 | -134.58606 | 32 ft | 0 kts | 224° |
| 2026-05-08 01:19 | 58.35767 | -134.58620 | 33 ft | 8 kts | 173° |
| 2026-05-08 01:19 | 58.35726 | -134.58494 | 33 ft | 16 kts | 107° |
| 2026-05-08 01:20 | 58.35692 | -134.58242 | 33 ft | 23 kts | 104° |
| 2026-05-08 01:20 | 58.35647 | -134.57921 | 33 ft | 27 kts | 105° |
| 2026-05-08 01:20 | 58.35596 | -134.57558 | 33 ft | 30 kts | 103° |
| 2026-05-08 01:20 | 58.35543 | -134.57167 | 33 ft | 30 kts | 105° |
| 2026-05-08 01:21 | 58.35490 | -134.56793 | 33 ft | 28 kts | 105° |
| 2026-05-08 01:21 | 58.35441 | -134.56440 | 33 ft | 27 kts | 105° |
| 2026-05-08 01:21 | 58.35396 | -134.56109 | 33 ft | 25 kts | 104° |
| 2026-05-08 01:21 | 58.35352 | -134.55801 | 33 ft | 23 kts | 105° |
| 2026-05-08 01:22 | 58.35311 | -134.55509 | 33 ft | 22 kts | 104° |
| 2026-05-08 01:22 | 58.35231 | -134.55302 | 31 ft | 22 kts | 187° |
| 2026-05-08 01:22 | 58.35206 | -134.55558 | 31 ft | 32 kts | 284° |
| 2026-05-08 01:22 | 58.35321 | -134.56378 | 34 ft | 97 kts | 285° |
| 2026-05-08 01:23 | 58.35544 | -134.57984 | 56 ft | 149 kts | 286° |
| 2026-05-08 01:23 | 58.35864 | -134.59921 | 644 ft | 153 kts | 287° |
| 2026-05-08 01:23 | 58.36227 | -134.61881 | 1307 ft | 163 kts | 291° |
| 2026-05-08 01:23 | 58.36450 | -134.64034 | 1880 ft | 179 kts | 261° |
| 2026-05-08 01:24 | 58.35761 | -134.66193 | 2152 ft | 206 kts | 221° |
| 2026-05-08 01:24 | 58.34494 | -134.67714 | 2438 ft | 226 kts | 209° |
| 2026-05-08 01:24 | 58.33206 | -134.69596 | 2766 ft | 245 kts | 227° |
| 2026-05-08 01:24 | 58.32015 | -134.72146 | 3172 ft | 264 kts | 230° |
| 2026-05-08 01:25 | 58.30808 | -134.74716 | 4233 ft | 258 kts | 226° |
| 2026-05-08 01:25 | 58.29557 | -134.77149 | 5180 ft | 258 kts | 224° |
| 2026-05-08 01:25 | 58.28281 | -134.79574 | 5986 ft | 261 kts | 224° |
| 2026-05-08 01:25 | 58.26993 | -134.82029 | 6833 ft | 263 kts | 224° |
| 2026-05-08 01:26 | 58.25700 | -134.84505 | 7554 ft | 264 kts | 225° |
| 2026-05-08 01:26 | 58.24406 | -134.86992 | 7954 ft | 267 kts | 225° |
| 2026-05-08 01:26 | 58.23115 | -134.89478 | 7992 ft | 269 kts | 225° |
| 2026-05-08 01:26 | 58.21803 | -134.92003 | 8012 ft | 269 kts | 225° |
| 2026-05-08 01:27 | 58.20489 | -134.94529 | 8012 ft | 269 kts | 225° |
| 2026-05-08 01:27 | 58.19173 | -134.97055 | 8016 ft | 269 kts | 225° |
| 2026-05-08 01:27 | 58.17701 | -134.99212 | 8000 ft | 269 kts | 203° |
| 2026-05-08 01:27 | 58.15930 | -135.00296 | 8023 ft | 268 kts | 197° |
| 2026-05-08 01:28 | 58.14139 | -135.01273 | 8019 ft | 268 kts | 196° |
| 2026-05-08 01:28 | 58.12342 | -135.02246 | 8016 ft | 268 kts | 196° |
| 2026-05-08 01:28 | 58.10542 | -135.03221 | 8012 ft | 269 kts | 196° |
| 2026-05-08 01:28 | 58.08725 | -135.04208 | 8211 ft | 274 kts | 196° |
| 2026-05-08 01:29 | 58.06889 | -135.05208 | 9112 ft | 274 kts | 197° |
| 2026-05-08 01:29 | 58.05021 | -135.06226 | 9441 ft | 280 kts | 197° |
| 2026-05-08 01:29 | 58.03162 | -135.07240 | 9656 ft | 277 kts | 197° |
| 2026-05-08 01:29 | 58.01314 | -135.08248 | 9790 ft | 277 kts | 197° |
| 2026-05-08 01:30 | 57.99451 | -135.09266 | 9708 ft | 281 kts | 197° |
| 2026-05-08 01:30 | 57.97565 | -135.10296 | 9434 ft | 284 kts | 197° |
| 2026-05-08 01:30 | 57.95683 | -135.11322 | 9158 ft | 278 kts | 197° |
| 2026-05-08 01:30 | 57.93861 | -135.12312 | 8875 ft | 268 kts | 197° |
| 2026-05-08 01:31 | 57.92095 | -135.13272 | 8615 ft | 261 kts | 197° |
| 2026-05-08 01:31 | 57.90367 | -135.14211 | 8344 ft | 257 kts | 197° |
| 2026-05-08 01:31 | 57.88656 | -135.15140 | 8082 ft | 255 kts | 196° |
| 2026-05-08 01:31 | 57.86951 | -135.16066 | 7827 ft | 255 kts | 196° |
| 2026-05-08 01:32 | 57.85271 | -135.16977 | 7587 ft | 254 kts | 196° |
| 2026-05-08 01:32 | 57.83573 | -135.17897 | 7336 ft | 254 kts | 196° |
| 2026-05-08 01:32 | 57.81874 | -135.18816 | 7069 ft | 254 kts | 196° |
| 2026-05-08 01:32 | 57.80179 | -135.19732 | 6829 ft | 254 kts | 195° |
| 2026-05-08 01:33 | 57.78480 | -135.20650 | 6586 ft | 255 kts | 195° |
| 2026-05-08 01:33 | 57.76775 | -135.21570 | 6316 ft | 255 kts | 195° |
| 2026-05-08 01:33 | 57.75067 | -135.22491 | 6045 ft | 256 kts | 195° |
| 2026-05-08 01:33 | 57.73356 | -135.23412 | 5791 ft | 256 kts | 195° |
| 2026-05-08 01:34 | 57.71638 | -135.24336 | 5532 ft | 256 kts | 195° |
| 2026-05-08 01:34 | 57.69923 | -135.25258 | 5274 ft | 257 kts | 195° |
| 2026-05-08 01:34 | 57.68202 | -135.26182 | 5018 ft | 258 kts | 194° |
| 2026-05-08 01:34 | 57.66481 | -135.27104 | 4738 ft | 257 kts | 195° |
| 2026-05-08 01:35 | 57.64768 | -135.28022 | 4553 ft | 253 kts | 195° |
| 2026-05-08 01:35 | 57.63085 | -135.28922 | 4517 ft | 251 kts | 195° |
| 2026-05-08 01:35 | 57.61425 | -135.29819 | 4520 ft | 252 kts | 195° |
| 2026-05-08 01:35 | 57.59728 | -135.30723 | 4519 ft | 254 kts | 195° |
| 2026-05-08 01:36 | 57.58031 | -135.31625 | 4491 ft | 252 kts | 195° |
| 2026-05-08 01:36 | 57.56348 | -135.32519 | 4517 ft | 251 kts | 195° |
| 2026-05-08 01:36 | 57.54672 | -135.33413 | 4513 ft | 251 kts | 195° |
| 2026-05-08 01:36 | 57.52994 | -135.34309 | 4519 ft | 251 kts | 195° |
| 2026-05-08 01:37 | 57.51318 | -135.35201 | 4508 ft | 251 kts | 195° |
| 2026-05-08 01:37 | 57.49641 | -135.36092 | 4512 ft | 251 kts | 194° |
| 2026-05-08 01:37 | 57.47961 | -135.36976 | 4525 ft | 250 kts | 195° |
| 2026-05-08 01:37 | 57.46280 | -135.37873 | 4510 ft | 252 kts | 194° |
| 2026-05-08 01:38 | 57.44594 | -135.38776 | 4508 ft | 252 kts | 194° |
| 2026-05-08 01:38 | 57.42906 | -135.39678 | 4520 ft | 253 kts | 194° |
| 2026-05-08 01:38 | 57.41213 | -135.40577 | 4509 ft | 254 kts | 195° |
| 2026-05-08 01:38 | 57.39516 | -135.41483 | 4505 ft | 253 kts | 195° |
| 2026-05-08 01:39 | 57.37822 | -135.42384 | 4494 ft | 254 kts | 195° |
| 2026-05-08 01:39 | 57.36136 | -135.43284 | 4510 ft | 252 kts | 193° |
| 2026-05-08 01:39 | 57.34466 | -135.44166 | 4371 ft | 255 kts | 195° |
| 2026-05-08 01:39 | 57.32759 | -135.45063 | 4152 ft | 255 kts | 194° |
| 2026-05-08 01:40 | 57.31056 | -135.45957 | 3943 ft | 254 kts | 194° |
| 2026-05-08 01:40 | 57.29361 | -135.46848 | 3752 ft | 253 kts | 195° |
| 2026-05-08 01:40 | 57.27674 | -135.47734 | 3555 ft | 251 kts | 195° |
| 2026-05-08 01:40 | 57.26003 | -135.48610 | 3354 ft | 248 kts | 195° |
| 2026-05-08 01:41 | 57.24327 | -135.49488 | 3248 ft | 250 kts | 195° |
| 2026-05-08 01:41 | 57.22673 | -135.50356 | 3206 ft | 244 kts | 195° |
| 2026-05-08 01:41 | 57.21075 | -135.51192 | 3186 ft | 232 kts | 195° |
| 2026-05-08 01:41 | 57.19539 | -135.51996 | 2987 ft | 228 kts | 196° |
| 2026-05-08 01:42 | 57.18052 | -135.52776 | 2888 ft | 216 kts | 196° |
| 2026-05-08 01:42 | 57.16667 | -135.53499 | 2793 ft | 203 kts | 196° |
| 2026-05-08 01:42 | 57.15326 | -135.54026 | 2664 ft | 196 kts | 178° |
| 2026-05-08 01:42 | 57.14077 | -135.53113 | 2372 ft | 201 kts | 133° |
| 2026-05-08 01:43 | 57.13229 | -135.51139 | 2180 ft | 197 kts | 134° |
| 2026-05-08 01:43 | 57.12148 | -135.49622 | 1916 ft | 193 kts | 143° |
| 2026-05-08 01:43 | 57.11174 | -135.47959 | 1651 ft | 190 kts | 133° |
| 2026-05-08 01:43 | 57.10311 | -135.46239 | 1490 ft | 177 kts | 135° |
| 2026-05-08 01:44 | 57.09453 | -135.44655 | 1197 ft | 173 kts | 138° |
| 2026-05-08 01:44 | 57.08856 | -135.43673 | 979 ft | 171 kts | 138° |
| 2026-05-08 01:44 | 57.07786 | -135.41731 | 854 ft | 157 kts | 135° |
| 2026-05-08 01:44 | 57.07011 | -135.40278 | 660 ft | 159 kts | 136° |
| 2026-05-08 01:45 | 57.06233 | -135.38900 | 429 ft | 154 kts | 138° |
| 2026-05-08 01:45 | 57.05483 | -135.37552 | 119 ft | 148 kts | 138° |
| 2026-05-08 01:45 | 57.04805 | -135.36339 | 34 ft | 111 kts | 135° |
| 2026-05-08 01:45 | 57.04505 | -135.35789 | 35 ft | 69 kts | 135° |